KJYM Airport (Hillsdale Muni) Information

FAA: JYM - ICAO: KJYM

KJYM Airport Location

State Michigan
County Hillsdale
City Hillsdale
KJYM Airport is 3 miles east of Hillsdale, MI.
Latitude 41-55-16.6900N
Longitude 084-35-12.1150W
Elevation 1,184ft

KJYM Airport METARs

METAR KJYM 302235Z AUTO 00000KT 10SM CLR 16/07 A3018 RMK AO2 T01560068
Altimeter 30.18"
Temperature 15.6°C (60.1°F)
Wind 0° at 0KT
Clouds Skies are clear.
Visibility 10.0mi
Time observed: 2022-09-30T22:35:00Z

KJYM Airport Details

Status Operational
Activation October 1962
Ownership Public
Usage Public
Chart DETROIT
ATC on-site No
Beacon schedule sunset-sunrise
Beacon color clear green

KJYM Airport Contacts

Owner CITY OF HILLSDALE
Owner address 97 N. BROAD ST, HILLSDALE, MI 49242
Owner phone 517-437-6444
Manager GLENN E HARPER
Manager address 11122 AL FORD LN, BRIGHTON, MI 48114-9691
Manager phone 313-732-5213

KJYM Airport (Hillsdale Muni) Radio Frequencies

KJYM (Airport) Radio Frequencies

UNICOM 122.8
Common traffic advisory frequency (CTAF) 122.8